»·PEaware :: N678ND KSNA-KCRQ

N678ND :: KSNA-KCRQ

FLIGHT INFORMATION

Flight Status: Arrived
Operator: Privately registered:
United States
More flights under this callsign
Pilot: Jonathan M. (25046)
Aircraft: CESSNA 172 SKYHAWK
(C172)
More flights by this aircraft type
Origin: KSNA John Wayne-Orange Co
United States
Destination: KCRQ McClellan-Palomar
United States
More flights between these airports :: More routes between these airports
Route: +V23 OCN
File this flight plan on PilotEdge
Remarks: CALLSIGN SIOUX 678
Altitude:
(Current/Filed)
5,000ft
Speed:
(Current/Filed)
110kts
Departed: 30-Nov-19 05:27 PM
Arrived: 30-Nov-19 05:55 PM
Distance/Time
Traveled:
44nm/0:28
Distance/Time
To Go:
Arrived

Flight Plot

Page will automatically refresh every two minutes.


Map Options




Map Legend


Flown Route
Filed Route
Departure Airport
Arrival Airport
Navaid (VOR, NDB)
Fix

Horizontal Profiles

Position Reports

Time Latitude Longitude Heading Altitude Ground
Speed
30-Nov-19 16:11 33.676080 -117.870909 219 60ft 0kts
30-Nov-19 16:12 33.676080 -117.870909 219 60ft 0kts
30-Nov-19 16:13 33.676080 -117.870909 219 60ft 0kts
30-Nov-19 16:14 33.676080 -117.870909 219 60ft 0kts
30-Nov-19 16:15 33.676080 -117.870909 219 60ft 0kts
30-Nov-19 16:16 33.676080 -117.870909 219 60ft 0kts
30-Nov-19 16:17 33.676080 -117.870909 219 60ft 0kts
30-Nov-19 16:18 33.676080 -117.870909 219 60ft 0kts
30-Nov-19 16:19 33.676080 -117.870909 219 60ft 0kts
30-Nov-19 16:20 33.676080 -117.870909 219 60ft 0kts
30-Nov-19 16:21 33.676080 -117.870909 219 60ft 0kts
30-Nov-19 16:22 33.676080 -117.870909 219 60ft 0kts
30-Nov-19 16:23 33.676080 -117.870909 219 60ft 0kts
30-Nov-19 16:24 33.676080 -117.870909 219 60ft 0kts
30-Nov-19 16:25 33.676080 -117.870909 219 60ft 0kts
30-Nov-19 16:26 33.676080 -117.870909 219 60ft 0kts
30-Nov-19 16:27 33.676080 -117.870909 219 60ft 0kts
30-Nov-19 16:28 33.676080 -117.870909 219 60ft 0kts
30-Nov-19 16:29 33.676080 -117.870909 219 60ft 0kts
30-Nov-19 16:30 33.676080 -117.870909 219 60ft 0kts
30-Nov-19 16:31 33.676080 -117.870909 219 60ft 0kts
30-Nov-19 16:32 33.676080 -117.870909 219 60ft 0kts
30-Nov-19 16:33 33.676080 -117.870909 219 60ft 0kts
30-Nov-19 16:34 33.676080 -117.870909 219 60ft 0kts
30-Nov-19 16:35 33.676080 -117.870909 219 60ft 0kts
30-Nov-19 16:36 33.676080 -117.870909 219 60ft 0kts
30-Nov-19 16:37 33.676080 -117.870909 219 60ft 0kts
30-Nov-19 16:38 33.676080 -117.870909 219 60ft 0kts
30-Nov-19 16:39 33.676080 -117.870909 219 60ft 0kts
30-Nov-19 16:40 33.676080 -117.870909 219 60ft 0kts
30-Nov-19 16:41 33.676080 -117.870909 219 60ft 0kts
30-Nov-19 16:42 33.676080 -117.870909 219 60ft 0kts
30-Nov-19 16:43 33.676080 -117.870909 219 60ft 0kts
30-Nov-19 16:44 33.676080 -117.870909 219 60ft 0kts
30-Nov-19 16:45 33.676080 -117.870909 219 60ft 0kts
30-Nov-19 16:46 33.676080 -117.870909 219 60ft 0kts
30-Nov-19 16:47 33.676080 -117.870909 219 60ft 0kts
30-Nov-19 16:48 33.676080 -117.870909 219 60ft 0kts
30-Nov-19 16:49 33.676080 -117.870909 219 60ft 0kts
30-Nov-19 16:50 33.676080 -117.870909 219 60ft 0kts
30-Nov-19 16:51 33.676080 -117.870909 219 60ft 0kts
30-Nov-19 16:52 33.676080 -117.870909 219 60ft 0kts
30-Nov-19 16:53 33.676080 -117.870909 219 60ft 0kts
30-Nov-19 16:54 33.676080 -117.870909 219 60ft 0kts
30-Nov-19 16:55 33.676080 -117.870909 219 60ft 0kts
30-Nov-19 16:56 33.676080 -117.870909 219 60ft 0kts
30-Nov-19 16:57 33.676080 -117.870909 219 60ft 0kts
30-Nov-19 16:58 33.676080 -117.870909 219 60ft 0kts
30-Nov-19 16:59 33.676080 -117.870909 219 60ft 0kts
30-Nov-19 17:00 33.676080 -117.870909 219 60ft 0kts
30-Nov-19 17:01 33.676080 -117.870909 219 60ft 0kts
30-Nov-19 17:02 33.676080 -117.870909 219 60ft 0kts
30-Nov-19 17:03 33.676080 -117.870909 219 60ft 0kts
30-Nov-19 17:04 33.676080 -117.870909 219 60ft 0kts
30-Nov-19 17:05 33.676080 -117.870909 219 60ft 0kts
30-Nov-19 17:06 33.675960 -117.870884 125 60ft 0kts
30-Nov-19 17:07 33.675960 -117.870884 125 60ft 0kts
30-Nov-19 17:08 33.675960 -117.870884 125 60ft 0kts
30-Nov-19 17:09 33.675960 -117.870884 125 60ft 0kts
30-Nov-19 17:10 33.675960 -117.870884 125 60ft 0kts
30-Nov-19 17:11 33.675960 -117.870884 125 60ft 0kts
30-Nov-19 17:12 33.675960 -117.870884 125 60ft 0kts
30-Nov-19 17:13 33.675960 -117.870884 125 60ft 0kts
30-Nov-19 17:14 33.675960 -117.870884 125 60ft 0kts
30-Nov-19 17:15 33.675960 -117.870884 125 60ft 0kts
30-Nov-19 17:16 33.675960 -117.870884 125 60ft 0kts
30-Nov-19 17:17 33.675960 -117.870884 125 60ft 0kts
30-Nov-19 17:18 33.676638 -117.869730 27 60ft 9kts
30-Nov-19 17:19 33.679213 -117.868098 21 60ft 11kts
30-Nov-19 17:20 33.681255 -117.866431 130 60ft 0kts
30-Nov-19 17:21 33.681245 -117.866418 129 60ft 0kts
30-Nov-19 17:22 33.681245 -117.866418 130 60ft 0kts
30-Nov-19 17:23 33.681245 -117.866418 130 60ft 0kts
30-Nov-19 17:24 33.681245 -117.866418 130 60ft 0kts
30-Nov-19 17:25 33.680629 -117.865693 194 60ft 13kts
30-Nov-19 17:26 33.665177 -117.875674 209 613ft 77kts
30-Nov-19 17:27 33.643412 -117.879645 186 1451ft 81kts
30-Nov-19 17:28 33.624706 -117.867499 134 2228ft 83kts
30-Nov-19 17:29 33.608720 -117.847289 130 2980ft 83kts
30-Nov-19 17:30 33.592286 -117.826561 132 3646ft 87kts
30-Nov-19 17:31 33.575623 -117.804684 133 4293ft 90kts
30-Nov-19 17:32 33.557596 -117.782315 131 4915ft 94kts
30-Nov-19 17:33 33.538477 -117.757817 134 5031ft 104kts
30-Nov-19 17:34 33.516399 -117.730832 138 5007ft 119kts
30-Nov-19 17:35 33.492332 -117.703320 139 5041ft 120kts
30-Nov-19 17:36 33.467971 -117.675316 137 5012ft 124kts
30-Nov-19 17:37 33.442871 -117.647190 141 4991ft 123kts
30-Nov-19 17:38 33.417687 -117.619349 144 4974ft 122kts
30-Nov-19 17:39 33.391845 -117.593021 141 4942ft 124kts
30-Nov-19 17:40 33.367631 -117.563750 138 4941ft 123kts
30-Nov-19 17:41 33.344308 -117.534224 138 4976ft 120kts
30-Nov-19 17:42 33.320677 -117.505958 143 5011ft 119kts
30-Nov-19 17:43 33.294739 -117.481920 141 5051ft 120kts
30-Nov-19 17:44 33.270971 -117.452649 138 5006ft 123kts
30-Nov-19 17:45 33.251732 -117.428495 138 4995ft 120kts
30-Nov-19 17:46 33.228820 -117.400226 140 4612ft 119kts
30-Nov-19 17:47 33.203614 -117.372505 142 3849ft 127kts
30-Nov-19 17:48 33.178449 -117.343730 140 2816ft 116kts
30-Nov-19 17:49 33.156585 -117.318349 138 1941ft 105kts
30-Nov-19 17:50 33.139589 -117.292589 89 1431ft 95kts
30-Nov-19 17:51 33.144244 -117.259955 80 1092ft 98kts
30-Nov-19 17:52 33.131721 -117.257404 261 634ft 63kts
30-Nov-19 17:53 33.128852 -117.276365 259 339ft 47kts
30-Nov-19 17:54 33.127572 -117.279938 225 335ft 0kts
30-Nov-19 17:55 33.127572 -117.279939 225 335ft 0kts
30-Nov-19 17:56 33.127461 -117.279898 96 335ft 4kts
30-Nov-19 17:57 33.127084 -117.277467 151 335ft 5kts
30-Nov-19 17:58 33.127055 -117.277274 62 335ft 0kts

Navigation Log

Ident Type
Flight plan parsing failed, navigation log unavailable